Time;durP1;ratioP1;P1;durP2;ratioP2;P2;SDS_P1;SDS_P2;PMS_P1;PMS_P2;Temp;Humidity;BMP_temperature;BMP_pressure;BME280_temperature;BME280_humidity;BME280_pressure;Samples;Min_cycle;Max_cycle;Signal;HPM_P1;HPM_P2
2022/02/18 00:00:54;;;;;;;10.98;4.10;;;;;;;;;;5031368;28;20652;-84
2022/02/18 00:03:20;;;;;;;15.05;5.10;;;;;;;;;;5023118;28;20589;-82
2022/02/18 00:05:46;;;;;;;17.45;4.15;;;;;;;;;;5025097;28;20206;-82
2022/02/18 00:08:13;;;;;;;17.55;4.28;;;;;;;;;;5012557;28;20249;-83
2022/02/18 00:10:39;;;;;;;17.77;4.90;;;;;;;;;;5028127;28;20219;-83
2022/02/18 00:13:05;;;;;;;18.60;4.82;;;;;;;;;;5027538;28;20237;-83
2022/02/18 00:15:31;;;;;;;14.82;5.65;;;;;;;;;;5011265;28;20179;-82
2022/02/18 00:17:57;;;;;;;15.75;3.97;;;;;;;;;;5048399;28;20187;-82
2022/02/18 00:20:23;;;;;;;16.27;4.43;;;;;;;;;;5038747;28;20175;-82
2022/02/18 00:22:50;;;;;;;19.33;6.40;;;;;;;;;;5039921;28;20190;-83
2022/02/18 00:25:16;;;;;;;15.55;4.50;;;;;;;;;;5034209;28;20183;-83
2022/02/18 00:27:42;;;;;;;14.37;4.40;;;;;;;;;;5025897;28;20210;-81
2022/02/18 00:30:09;;;;;;;18.73;4.13;;;;;;;;;;5023766;28;20465;-83
2022/02/18 00:32:35;;;;;;;17.15;4.70;;;;;;;;;;5036846;28;20178;-84
2022/02/18 00:35:01;;;;;;;11.15;3.55;;;;;;;;;;5022550;28;20213;-84
2022/02/18 00:37:27;;;;;;;14.33;3.40;;;;;;;;;;5027866;28;20185;-82
2022/02/18 00:39:54;;;;;;;22.55;4.55;;;;;;;;;;5030768;28;20477;-85
2022/02/18 00:42:20;;;;;;;16.27;3.90;;;;;;;;;;5021802;28;20198;-85
2022/02/18 00:44:46;;;;;;;17.02;3.42;;;;;;;;;;5037013;28;20208;-85
2022/02/18 00:47:12;;;;;;;12.90;3.65;;;;;;;;;;5030496;28;20193;-83
2022/02/18 00:49:39;;;;;;;12.63;6.00;;;;;;;;;;5025821;28;20625;-84
2022/02/18 00:52:05;;;;;;;19.90;4.70;;;;;;;;;;5038386;28;20186;-85
2022/02/18 00:54:31;;;;;;;17.17;4.22;;;;;;;;;;5020445;28;20190;-84
2022/02/18 00:56:57;;;;;;;18.10;5.03;;;;;;;;;;5040742;28;20194;-83
2022/02/18 00:59:23;;;;;;;17.73;5.18;;;;;;;;;;5006671;28;20422;-85
2022/02/18 01:01:49;;;;;;;12.03;4.47;;;;;;;;;;5008053;28;20194;-84
2022/02/18 01:04:16;;;;;;;16.80;6.80;;;;;;;;;;5022770;28;20442;-84
2022/02/18 01:06:42;;;;;;;22.20;4.80;;;;;;;;;;5027472;28;20183;-84
2022/02/18 01:09:09;;;;;;;10.85;3.67;;;;;;;;;;5008074;28;20536;-83
2022/02/18 01:11:35;;;;;;;16.27;6.78;;;;;;;;;;5011748;28;20213;-83
2022/02/18 01:14:01;;;;;;;20.08;5.18;;;;;;;;;;5021823;28;20194;-83
2022/02/18 01:16:27;;;;;;;13.27;3.70;;;;;;;;;;5035214;28;20191;-83
2022/02/18 01:18:54;;;;;;;10.15;4.18;;;;;;;;;;5029673;28;20268;-84
2022/02/18 01:21:20;;;;;;;12.77;3.97;;;;;;;;;;5038379;28;20182;-83
2022/02/18 01:23:47;;;;;;;9.48;3.97;;;;;;;;;;5025079;28;20179;-83
2022/02/18 01:26:13;;;;;;;16.52;4.22;;;;;;;;;;5011240;28;20627;-83
2022/02/18 01:28:39;;;;;;;15.13;4.22;;;;;;;;;;5029904;28;20211;-84
2022/02/18 01:31:05;;;;;;;13.77;4.47;;;;;;;;;;5022801;28;20210;-83
2022/02/18 01:33:32;;;;;;;16.23;3.58;;;;;;;;;;5028903;28;20182;-83
2022/02/18 01:35:57;;;;;;;12.20;4.45;;;;;;;;;;5022062;28;20266;-83
2022/02/18 01:38:23;;;;;;;16.40;4.20;;;;;;;;;;5052808;28;20229;-83
2022/02/18 01:40:49;;;;;;;12.40;4.07;;;;;;;;;;5027887;28;20287;-83
2022/02/18 01:43:15;;;;;;;12.20;3.67;;;;;;;;;;5011971;28;20446;-83
2022/02/18 01:45:41;;;;;;;10.88;3.30;;;;;;;;;;5026007;28;20426;-84
2022/02/18 01:48:07;;;;;;;10.07;3.13;;;;;;;;;;5014615;28;20186;-83
2022/02/18 01:50:33;;;;;;;8.30;2.80;;;;;;;;;;5019730;28;20167;-83
2022/02/18 01:53:00;;;;;;;7.65;2.50;;;;;;;;;;5041100;28;20189;-83
2022/02/18 01:55:27;;;;;;;5.80;2.63;;;;;;;;;;5025540;28;20209;-83
2022/02/18 01:57:58;;;;;;;8.63;2.63;;;;;;;;;;5020042;28;20186;-82
2022/02/18 02:00:26;;;;;;;13.25;3.10;;;;;;;;;;5040089;28;20185;-84
2022/02/18 02:02:53;;;;;;;9.63;2.08;;;;;;;;;;5007243;28;20190;-83
2022/02/18 02:05:20;;;;;;;7.45;2.30;;;;;;;;;;5055878;28;20205;-83
2022/02/18 02:07:47;;;;;;;8.40;2.50;;;;;;;;;;5015585;28;20213;-82
2022/02/18 02:10:13;;;;;;;4.97;2.58;;;;;;;;;;5009985;28;20663;-83
2022/02/18 02:12:47;;;;;;;6.63;3.63;;;;;;;;;;5033549;28;20190;-81
2022/02/18 02:15:13;;;;;;;5.90;1.98;;;;;;;;;;5022485;28;20178;-81
2022/02/18 02:17:40;;;;;;;7.05;1.65;;;;;;;;;;5031092;28;20178;-81
2022/02/18 02:20:07;;;;;;;8.50;1.95;;;;;;;;;;5029844;28;20190;-81
2022/02/18 02:22:33;;;;;;;3.65;2.03;;;;;;;;;;5015031;28;20205;-83
2022/02/18 02:24:59;;;;;;;2.10;1.60;;;;;;;;;;5034702;28;20217;-81
2022/02/18 02:27:25;;;;;;;3.45;2.13;;;;;;;;;;5024103;28;20225;-81
2022/02/18 02:29:52;;;;;;;5.60;1.98;;;;;;;;;;5033411;28;20230;-81
2022/02/18 02:32:18;;;;;;;1.60;1.50;;;;;;;;;;5039469;28;20182;-81
2022/02/18 02:34:44;;;;;;;5.35;1.80;;;;;;;;;;5052693;28;20178;-82
2022/02/18 02:37:10;;;;;;;3.00;2.10;;;;;;;;;;5021914;28;20183;-80
2022/02/18 02:39:37;;;;;;;3.28;1.63;;;;;;;;;;5028846;28;20223;-80
2022/02/18 02:42:04;;;;;;;6.03;1.67;;;;;;;;;;5009813;28;20201;-81
2022/02/18 02:44:30;;;;;;;3.30;1.30;;;;;;;;;;5011849;28;20194;-79
2022/02/18 02:46:56;;;;;;;3.05;1.50;;;;;;;;;;5024130;28;20183;-79
2022/02/18 02:49:23;;;;;;;2.35;1.63;;;;;;;;;;5014126;28;20203;-79
2022/02/18 02:51:49;;;;;;;1.83;1.60;;;;;;;;;;5029537;28;20213;-78
2022/02/18 02:54:16;;;;;;;1.73;1.60;;;;;;;;;;5021306;28;20209;-78
2022/02/18 02:56:42;;;;;;;2.03;1.50;;;;;;;;;;5039006;28;20206;-79
2022/02/18 02:59:08;;;;;;;1.73;1.50;;;;;;;;;;5030555;28;20274;-79
2022/02/18 03:01:34;;;;;;;2.33;1.27;;;;;;;;;;5030054;28;20179;-78
2022/02/18 03:04:00;;;;;;;1.35;1.25;;;;;;;;;;5041290;28;20187;-81
2022/02/18 03:06:26;;;;;;;2.80;1.60;;;;;;;;;;5010267;28;20194;-79
2022/02/18 03:08:52;;;;;;;1.77;1.67;;;;;;;;;;5038711;28;20912;-82
2022/02/18 03:11:18;;;;;;;1.50;1.10;;;;;;;;;;5024567;28;20425;-86
2022/02/18 03:13:48;;;;;;;5.13;1.50;;;;;;;;;;5027902;28;20445;-79
2022/02/18 03:16:14;;;;;;;1.50;1.40;;;;;;;;;;5024534;28;20190;-82
2022/02/18 03:18:41;;;;;;;1.38;1.25;;;;;;;;;;5025662;28;20183;-80
2022/02/18 03:21:07;;;;;;;1.70;1.60;;;;;;;;;;5025511;28;20186;-80
2022/02/18 03:23:33;;;;;;;1.20;1.10;;;;;;;;;;5052920;28;20179;-79
2022/02/18 03:25:59;;;;;;;1.35;1.05;;;;;;;;;;5023412;28;20222;-79
2022/02/18 03:28:26;;;;;;;1.00;0.90;;;;;;;;;;5040455;28;20193;-79
2022/02/18 03:30:52;;;;;;;0.98;0.90;;;;;;;;;;5034569;28;20442;-81
2022/02/18 03:33:18;;;;;;;1.13;0.90;;;;;;;;;;5039698;28;20182;-83
2022/02/18 03:35:45;;;;;;;0.90;0.90;;;;;;;;;;5009035;28;20227;-80
2022/02/18 03:38:11;;;;;;;1.15;0.82;;;;;;;;;;5045500;28;20239;-80
2022/02/18 03:40:37;;;;;;;0.70;0.70;;;;;;;;;;5013893;28;20214;-84
2022/02/18 03:43:03;;;;;;;0.90;0.75;;;;;;;;;;5028148;28;20187;-85
2022/02/18 03:45:29;;;;;;;0.60;0.50;;;;;;;;;;5012571;28;20296;-80
2022/02/18 03:47:55;;;;;;;1.20;0.88;;;;;;;;;;5023342;28;20175;-82
2022/02/18 03:50:22;;;;;;;0.75;0.70;;;;;;;;;;5026938;28;20564;-82
2022/02/18 03:52:51;;;;;;;0.68;0.65;;;;;;;;;;5037775;28;20193;-82
2022/02/18 03:55:18;;;;;;;0.95;0.85;;;;;;;;;;5019420;28;20629;-82
2022/02/18 03:57:43;;;;;;;3.95;0.85;;;;;;;;;;5028768;28;20445;-86
2022/02/18 04:00:10;;;;;;;3.47;1.10;;;;;;;;;;5009419;28;20186;-88
2022/02/18 04:02:36;;;;;;;1.17;0.75;;;;;;;;;;5055053;28;20416;-82
2022/02/18 04:05:02;;;;;;;2.05;1.02;;;;;;;;;;5013658;28;20196;-84
2022/02/18 04:07:29;;;;;;;1.55;1.38;;;;;;;;;;5028258;28;20293;-82
2022/02/18 04:09:55;;;;;;;0.98;0.77;;;;;;;;;;5023721;28;20252;-84
2022/02/18 04:12:21;;;;;;;6.93;1.20;;;;;;;;;;5025873;28;20190;-87
2022/02/18 04:14:47;;;;;;;2.40;0.98;;;;;;;;;;5016725;28;20182;-82
2022/02/18 04:17:13;;;;;;;1.85;0.88;;;;;;;;;;5011940;28;20179;-83
2022/02/18 04:19:39;;;;;;;2.50;0.70;;;;;;;;;;5028346;28;20175;-82
2022/02/18 04:22:05;;;;;;;5.00;1.00;;;;;;;;;;5014993;28;20435;-86
2022/02/18 04:24:31;;;;;;;2.30;1.00;;;;;;;;;;5030521;28;20199;-83
2022/02/18 04:26:57;;;;;;;2.15;0.90;;;;;;;;;;5022958;28;20455;-86
2022/02/18 04:29:23;;;;;;;4.07;0.80;;;;;;;;;;5026379;28;20211;-88
2022/02/18 04:31:49;;;;;;;1.92;0.70;;;;;;;;;;5040200;28;20612;-86
2022/02/18 04:34:15;;;;;;;1.55;0.80;;;;;;;;;;5028948;28;20194;-83
2022/02/18 04:36:41;;;;;;;1.35;0.70;;;;;;;;;;5018734;28;20559;-86
2022/02/18 04:39:07;;;;;;;2.25;0.70;;;;;;;;;;5029413;28;20294;-87
2022/02/18 04:41:33;;;;;;;3.00;0.85;;;;;;;;;;5039517;28;20241;-84
2022/02/18 04:44:03;;;;;;;0.80;0.77;;;;;;;;;;5022765;28;20200;-89
2022/02/18 04:46:29;;;;;;;1.00;0.90;;;;;;;;;;5022316;28;20214;-86
2022/02/18 04:48:55;;;;;;;0.90;0.80;;;;;;;;;;5032078;28;20206;-82
2022/02/18 04:51:21;;;;;;;0.80;0.75;;;;;;;;;;5025471;28;20436;-83
2022/02/18 04:53:47;;;;;;;1.75;0.90;;;;;;;;;;5023660;28;20175;-83
2022/02/18 04:56:13;;;;;;;1.15;0.80;;;;;;;;;;5043072;28;20233;-88
2022/02/18 04:58:39;;;;;;;1.85;0.85;;;;;;;;;;5012622;28;20198;-89
2022/02/18 05:01:06;;;;;;;2.05;0.85;;;;;;;;;;5027120;28;20195;-83
2022/02/18 05:03:32;;;;;;;1.42;0.80;;;;;;;;;;5040682;28;20598;-85
2022/02/18 05:05:58;;;;;;;0.95;0.85;;;;;;;;;;5022889;28;20217;-82
2022/02/18 05:08:25;;;;;;;1.80;1.10;;;;;;;;;;5025698;28;20374;-87
2022/02/18 05:10:51;;;;;;;0.88;0.70;;;;;;;;;;5027237;28;20953;-84
2022/02/18 05:13:17;;;;;;;1.00;0.57;;;;;;;;;;5028953;28;20207;-84
2022/02/18 05:15:43;;;;;;;0.85;0.70;;;;;;;;;;5032321;28;20206;-86
2022/02/18 05:18:08;;;;;;;2.65;0.82;;;;;;;;;;5008196;28;20187;-83
2022/02/18 05:20:34;;;;;;;0.80;0.67;;;;;;;;;;5024349;28;20190;-86
2022/02/18 05:23:00;;;;;;;1.27;0.87;;;;;;;;;;5036578;28;20453;-85
2022/02/18 05:25:27;;;;;;;1.00;0.80;;;;;;;;;;5022024;28;20520;-81
2022/02/18 05:27:53;;;;;;;1.08;0.82;;;;;;;;;;5036552;28;20175;-88
2022/02/18 05:30:20;;;;;;;1.50;0.90;;;;;;;;;;5024330;28;20590;-87
2022/02/18 05:32:46;;;;;;;0.80;0.70;;;;;;;;;;5048348;28;20193;-86
2022/02/18 05:35:12;;;;;;;0.95;0.90;;;;;;;;;;5022836;28;20183;-84
2022/02/18 05:37:40;;;;;;;1.13;0.80;;;;;;;;;;5011855;28;20186;-86
2022/02/18 05:40:07;;;;;;;0.63;0.63;;;;;;;;;;5027026;28;20660;-84
2022/02/18 05:42:33;;;;;;;2.25;2.15;;;;;;;;;;5020118;28;20213;-82
2022/02/18 05:44:59;;;;;;;1.90;0.77;;;;;;;;;;5007783;28;20251;-88
2022/02/18 05:47:25;;;;;;;1.73;0.80;;;;;;;;;;5004403;28;20987;-85
2022/02/18 05:49:50;;;;;;;5.63;0.93;;;;;;;;;;5022624;28;20470;-85
2022/02/18 05:52:16;;;;;;;1.20;0.80;;;;;;;;;;5027072;28;20193;-87
2022/02/18 05:54:42;;;;;;;1.85;0.80;;;;;;;;;;5026324;28;20433;-87
2022/02/18 05:57:08;;;;;;;2.97;0.70;;;;;;;;;;5022221;28;20182;-86
2022/02/18 05:59:34;;;;;;;1.30;0.75;;;;;;;;;;5023982;28;20585;-84
2022/02/18 06:02:00;;;;;;;2.77;1.00;;;;;;;;;;5036088;28;20186;-83
2022/02/18 06:04:26;;;;;;;1.98;0.88;;;;;;;;;;5021607;28;20484;-84
2022/02/18 06:06:52;;;;;;;2.20;0.93;;;;;;;;;;5019465;28;20183;-86
2022/02/18 06:09:18;;;;;;;1.27;0.70;;;;;;;;;;5050718;28;20840;-86
2022/02/18 06:11:44;;;;;;;2.10;1.55;;;;;;;;;;5034928;28;20934;-82
2022/02/18 06:14:10;;;;;;;1.20;0.90;;;;;;;;;;5021412;28;20174;-84
2022/02/18 06:16:36;;;;;;;0.80;0.80;;;;;;;;;;5019502;28;20251;-85
2022/02/18 06:19:04;;;;;;;1.70;0.80;;;;;;;;;;5033452;28;20442;-82
2022/02/18 06:21:30;;;;;;;0.82;0.70;;;;;;;;;;5036222;28;20451;-86
2022/02/18 06:23:56;;;;;;;1.83;1.00;;;;;;;;;;5026300;28;20207;-85
2022/02/18 06:26:22;;;;;;;1.15;0.80;;;;;;;;;;5028448;28;20183;-82
2022/02/18 06:28:48;;;;;;;1.10;0.80;;;;;;;;;;5029800;28;20205;-80
2022/02/18 06:31:16;;;;;;;1.50;0.70;;;;;;;;;;5035567;28;22014;-88
2022/02/18 06:33:45;;;;;;;1.60;0.70;;;;;;;;;;5032789;28;20694;-84
2022/02/18 06:36:11;;;;;;;1.50;1.02;;;;;;;;;;5037957;28;20182;-86
2022/02/18 06:38:37;;;;;;;0.90;0.80;;;;;;;;;;5043192;28;20257;-88
2022/02/18 06:41:03;;;;;;;2.17;0.80;;;;;;;;;;5030102;28;20245;-83
2022/02/18 06:43:29;;;;;;;2.67;0.90;;;;;;;;;;5025404;28;20222;-88
2022/02/18 06:45:55;;;;;;;1.67;0.70;;;;;;;;;;5029847;28;20195;-87
2022/02/18 06:48:22;;;;;;;1.25;0.85;;;;;;;;;;5024846;28;20988;-83
2022/02/18 06:50:48;;;;;;;2.00;1.35;;;;;;;;;;5028837;28;20179;-86
2022/02/18 06:53:14;;;;;;;1.77;1.15;;;;;;;;;;5046437;28;20200;-84
2022/02/18 06:55:40;;;;;;;1.13;0.93;;;;;;;;;;5030138;28;20213;-88
2022/02/18 06:58:06;;;;;;;4.05;1.20;;;;;;;;;;5029544;28;20442;-87
2022/02/18 07:00:32;;;;;;;3.50;0.88;;;;;;;;;;5026226;28;20270;-83
2022/02/18 07:02:58;;;;;;;2.00;0.90;;;;;;;;;;5061102;28;20203;-89
2022/02/18 07:05:24;;;;;;;1.10;0.90;;;;;;;;;;5055432;28;20201;-88
2022/02/18 07:07:50;;;;;;;4.63;1.05;;;;;;;;;;5028430;28;20245;-83
2022/02/18 07:10:16;;;;;;;1.50;0.90;;;;;;;;;;5026931;28;20280;-86
2022/02/18 07:12:42;;;;;;;4.07;0.98;;;;;;;;;;5022654;28;20217;-83
2022/02/18 07:15:09;;;;;;;3.55;1.63;;;;;;;;;;5043091;28;20193;-83
2022/02/18 07:17:35;;;;;;;2.75;1.00;;;;;;;;;;5026316;28;20179;-86
2022/02/18 07:20:02;;;;;;;1.48;0.88;;;;;;;;;;5025845;28;20539;-87
2022/02/18 07:22:28;;;;;;;3.92;1.48;;;;;;;;;;5041591;28;20220;-86
2022/02/18 07:24:55;;;;;;;3.22;0.85;;;;;;;;;;5040879;28;20194;-85
2022/02/18 07:27:21;;;;;;;1.83;0.88;;;;;;;;;;5040619;28;20194;-84
2022/02/18 07:29:47;;;;;;;4.65;1.15;;;;;;;;;;5010075;28;20211;-87
2022/02/18 07:32:13;;;;;;;2.63;0.90;;;;;;;;;;5032716;28;20205;-84
2022/02/18 07:34:40;;;;;;;6.68;1.98;;;;;;;;;;5026784;28;20190;-83
2022/02/18 07:37:06;;;;;;;3.20;0.95;;;;;;;;;;5024231;28;20194;-87
2022/02/18 07:39:32;;;;;;;1.20;0.90;;;;;;;;;;5026393;28;20672;-88
2022/02/18 07:41:58;;;;;;;1.50;1.02;;;;;;;;;;5034071;28;20652;-85
2022/02/18 07:44:24;;;;;;;2.53;1.05;;;;;;;;;;5042475;28;20713;-84
2022/02/18 07:46:50;;;;;;;2.05;1.10;;;;;;;;;;5020590;28;20191;-85
2022/02/18 07:49:16;;;;;;;1.80;1.20;;;;;;;;;;5030191;28;20260;-82
2022/02/18 07:51:42;;;;;;;2.97;1.10;;;;;;;;;;5021234;28;20445;-85
2022/02/18 07:54:09;;;;;;;1.95;0.93;;;;;;;;;;5030937;28;20182;-85
2022/02/18 07:56:35;;;;;;;2.38;0.80;;;;;;;;;;5049885;28;20182;-87
2022/02/18 07:59:01;;;;;;;1.77;0.90;;;;;;;;;;5045633;28;20191;-85
2022/02/18 08:01:27;;;;;;;1.05;0.82;;;;;;;;;;5020725;28;20190;-82
2022/02/18 08:03:53;;;;;;;5.40;1.07;;;;;;;;;;5021103;28;20242;-84
2022/02/18 08:06:20;;;;;;;2.92;1.13;;;;;;;;;;5019397;28;20503;-82
2022/02/18 08:08:46;;;;;;;1.65;1.10;;;;;;;;;;5023844;28;20207;-84
2022/02/18 08:11:16;;;;;;;1.65;0.80;;;;;;;;;;5054768;28;20179;-88
2022/02/18 08:13:42;;;;;;;1.10;0.80;;;;;;;;;;5018842;28;20199;-88
2022/02/18 08:16:08;;;;;;;3.97;0.90;;;;;;;;;;5031679;28;20293;-88
2022/02/18 08:18:37;;;;;;;2.03;0.90;;;;;;;;;;5050752;28;20179;-86
2022/02/18 08:21:03;;;;;;;3.40;0.80;;;;;;;;;;5023013;28;20269;-86
2022/02/18 08:23:29;;;;;;;2.83;0.90;;;;;;;;;;5057527;28;20178;-89
2022/02/18 08:25:55;;;;;;;0.80;0.70;;;;;;;;;;5017473;28;20182;-86
2022/02/18 08:28:21;;;;;;;2.20;0.80;;;;;;;;;;5052844;28;20185;-85
2022/02/18 08:30:48;;;;;;;0.80;0.63;;;;;;;;;;5023838;28;20210;-82
2022/02/18 08:33:14;;;;;;;0.65;0.65;;;;;;;;;;5017218;28;20266;-88
2022/02/18 08:35:40;;;;;;;2.08;1.15;;;;;;;;;;5023987;28;20667;-90
2022/02/18 08:38:07;;;;;;;2.80;0.90;;;;;;;;;;5034810;28;20242;-89
2022/02/18 08:40:34;;;;;;;3.00;0.80;;;;;;;;;;5045362;28;20190;-84
2022/02/18 08:43:01;;;;;;;1.13;0.80;;;;;;;;;;5034268;28;20187;-86
2022/02/18 08:45:27;;;;;;;2.75;1.00;;;;;;;;;;5038839;28;20189;-85
2022/02/18 08:47:53;;;;;;;2.08;1.15;;;;;;;;;;5054911;28;20173;-85
2022/02/18 08:50:19;;;;;;;4.53;1.80;;;;;;;;;;5022839;28;20202;-82
2022/02/18 08:52:45;;;;;;;1.20;0.80;;;;;;;;;;5025716;28;20190;-87
2022/02/18 08:55:12;;;;;;;2.03;0.90;;;;;;;;;;5023727;28;20187;-86
2022/02/18 08:57:38;;;;;;;2.92;0.90;;;;;;;;;;5033928;28;20617;-85
2022/02/18 09:00:06;;;;;;;2.10;0.90;;;;;;;;;;5018148;28;20241;-82
2022/02/18 09:02:32;;;;;;;2.35;0.95;;;;;;;;;;5017081;28;20250;-81
2022/02/18 09:04:58;;;;;;;0.93;0.70;;;;;;;;;;5035203;28;20277;-88
2022/02/18 09:07:24;;;;;;;5.40;1.43;;;;;;;;;;5017092;28;20256;-87
2022/02/18 09:09:50;;;;;;;1.15;0.93;;;;;;;;;;5036601;28;20461;-82
2022/02/18 09:12:16;;;;;;;2.03;0.90;;;;;;;;;;5033401;28;20187;-87
2022/02/18 09:14:42;;;;;;;1.48;0.60;;;;;;;;;;5034149;28;20201;-85
2022/02/18 09:17:08;;;;;;;1.00;0.80;;;;;;;;;;5009744;28;20183;-82
2022/02/18 09:19:34;;;;;;;1.63;0.80;;;;;;;;;;5055031;28;20201;-84
2022/02/18 09:22:00;;;;;;;0.80;0.77;;;;;;;;;;5021121;28;20521;-86
2022/02/18 09:24:26;;;;;;;0.95;0.80;;;;;;;;;;5037855;28;20504;-89
2022/02/18 09:26:52;;;;;;;1.55;1.05;;;;;;;;;;5031562;28;20788;-86
2022/02/18 09:29:18;;;;;;;2.75;0.80;;;;;;;;;;5033146;28;20209;-86
2022/02/18 09:31:45;;;;;;;2.05;0.88;;;;;;;;;;5050360;28;20438;-86
2022/02/18 09:34:11;;;;;;;2.78;1.27;;;;;;;;;;5031093;28;20178;-88
2022/02/18 09:36:37;;;;;;;1.42;0.80;;;;;;;;;;5016881;28;20643;-89
2022/02/18 09:39:05;;;;;;;6.78;1.67;;;;;;;;;;5022137;28;21045;-88
2022/02/18 09:41:31;;;;;;;1.33;0.60;;;;;;;;;;5025051;28;20701;-90
2022/02/18 09:44:00;;;;;;;1.97;0.77;;;;;;;;;;5019400;28;20194;-88
2022/02/18 09:46:27;;;;;;;3.25;1.23;;;;;;;;;;5026377;28;20449;-87
2022/02/18 09:48:54;;;;;;;0.98;0.88;;;;;;;;;;5028387;28;20210;-85
2022/02/18 09:51:20;;;;;;;10.02;1.38;;;;;;;;;;5022133;28;20209;-87
2022/02/18 09:53:47;;;;;;;2.33;0.93;;;;;;;;;;5007128;28;20186;-85
2022/02/18 09:56:14;;;;;;;1.20;0.70;;;;;;;;;;5011305;28;20175;-83
2022/02/18 09:58:40;;;;;;;0.85;0.70;;;;;;;;;;5022068;28;20217;-84
2022/02/18 10:01:06;;;;;;;0.70;0.60;;;;;;;;;;5026741;28;20179;-88
2022/02/18 10:03:32;;;;;;;1.05;0.73;;;;;;;;;;5007468;28;20270;-90
2022/02/18 10:05:58;;;;;;;1.73;0.60;;;;;;;;;;5037247;28;20353;-86
2022/02/18 10:08:25;;;;;;;0.63;0.63;;;;;;;;;;5037214;28;20182;-88
2022/02/18 10:11:05;;;;;;;1.20;0.80;;;;;;;;;;5026474;28;20191;-88
2022/02/18 10:13:33;;;;;;;0.80;0.70;;;;;;;;;;5022406;28;20194;-87
2022/02/18 10:16:00;;;;;;;1.55;0.73;;;;;;;;;;5022293;28;20190;-90
2022/02/18 10:18:27;;;;;;;1.00;0.88;;;;;;;;;;5022487;28;20377;-85
2022/02/18 10:20:54;;;;;;;1.45;0.70;;;;;;;;;;5036506;28;20175;-90
2022/02/18 10:23:22;;;;;;;0.90;0.70;;;;;;;;;;5038383;28;20182;-88
2022/02/18 10:25:49;;;;;;;0.57;0.57;;;;;;;;;;5021965;28;20194;-86
2022/02/18 10:28:16;;;;;;;1.15;0.60;;;;;;;;;;5006766;28;20194;-84
2022/02/18 10:30:44;;;;;;;0.70;0.70;;;;;;;;;;5011461;28;20261;-89
2022/02/18 10:33:17;;;;;;;1.17;0.70;;;;;;;;;;5022738;28;20182;-85
2022/02/18 10:35:45;;;;;;;0.77;0.73;;;;;;;;;;5003946;28;20179;-88
2022/02/18 10:38:11;;;;;;;0.60;0.60;;;;;;;;;;5010112;28;20665;-87
2022/02/18 10:40:43;;;;;;;0.90;0.60;;;;;;;;;;5011818;28;20198;-88
2022/02/18 10:43:11;;;;;;;1.23;0.70;;;;;;;;;;5022384;28;20203;-86
2022/02/18 10:45:50;;;;;;;0.70;0.70;;;;;;;;;;5025682;28;20182;-86
2022/02/18 10:48:19;;;;;;;0.60;0.60;;;;;;;;;;5023127;28;20179;-85
2022/02/18 10:51:02;;;;;;;0.95;0.70;;;;;;;;;;5006542;28;20229;-83
2022/02/18 10:53:34;;;;;;;0.50;0.50;;;;;;;;;;5055344;28;20586;-91
2022/02/18 10:56:01;;;;;;;1.48;0.90;;;;;;;;;;5027178;28;20198;-91
2022/02/18 10:58:28;;;;;;;1.00;0.90;;;;;;;;;;5015330;28;20188;-91
2022/02/18 11:01:04;;;;;;;1.23;0.80;;;;;;;;;;5036643;28;20187;-83
2022/02/18 11:03:31;;;;;;;0.70;0.70;;;;;;;;;;5025971;28;20228;-86
2022/02/18 11:06:15;;;;;;;0.80;0.60;;;;;;;;;;5009021;28;20167;-83
2022/02/18 11:08:47;;;;;;;0.80;0.80;;;;;;;;;;5023259;28;20168;-87
2022/02/18 11:11:13;;;;;;;0.95;0.80;;;;;;;;;;5013832;28;20570;-90
2022/02/18 11:13:40;;;;;;;0.70;0.70;;;;;;;;;;5014597;28;20282;-86
2022/02/18 11:16:08;;;;;;;0.80;0.80;;;;;;;;;;5014370;28;20431;-85
2022/02/18 11:18:34;;;;;;;0.57;0.57;;;;;;;;;;5032004;28;20425;-88
2022/02/18 11:21:01;;;;;;;1.10;0.60;;;;;;;;;;5040628;28;20477;-89
2022/02/18 11:23:28;;;;;;;0.60;0.60;;;;;;;;;;5028259;28;20171;-85
2022/02/18 11:25:54;;;;;;;1.20;0.88;;;;;;;;;;5038387;28;20233;-87
2022/02/18 11:28:20;;;;;;;0.70;0.60;;;;;;;;;;5025083;28;20198;-87
2022/02/18 11:30:47;;;;;;;2.03;0.80;;;;;;;;;;5036536;28;20207;-88
2022/02/18 11:33:20;;;;;;;0.90;0.90;;;;;;;;;;5025646;28;20471;-86
2022/02/18 11:36:05;;;;;;;0.90;0.80;;;;;;;;;;5038670;28;20182;-83
2022/02/18 11:38:43;;;;;;;0.82;0.60;;;;;;;;;;5057632;28;20221;-84
2022/02/18 11:41:12;;;;;;;1.40;0.80;;;;;;;;;;5014121;28;20183;-87
2022/02/18 11:43:45;;;;;;;1.10;0.90;;;;;;;;;;5014146;28;20187;-88
2022/02/18 11:46:20;;;;;;;3.58;1.00;;;;;;;;;;5041956;28;20206;-81
2022/02/18 11:48:47;;;;;;;2.08;1.00;;;;;;;;;;5019277;28;20214;-88
2022/02/18 11:51:14;;;;;;;2.33;1.00;;;;;;;;;;5029406;28;20179;-84
2022/02/18 11:53:42;;;;;;;4.80;1.08;;;;;;;;;;5014690;28;20260;-87
2022/02/18 11:56:08;;;;;;;6.38;1.65;;;;;;;;;;5048341;28;20254;-82
2022/02/18 11:58:49;;;;;;;2.20;1.05;;;;;;;;;;5020340;28;20212;-87
2022/02/18 12:01:16;;;;;;;3.05;0.90;;;;;;;;;;5046000;28;20217;-87
2022/02/18 12:04:01;;;;;;;3.35;1.05;;;;;;;;;;5007846;28;20672;-86
2022/02/18 12:06:30;;;;;;;0.90;0.60;;;;;;;;;;5025271;28;20194;-87
2022/02/18 12:08:57;;;;;;;2.58;0.75;;;;;;;;;;5021639;28;20230;-85
2022/02/18 12:11:23;;;;;;;2.20;0.75;;;;;;;;;;5017561;28;20225;-87
2022/02/18 12:13:59;;;;;;;3.58;0.90;;;;;;;;;;5023286;28;20258;-86
2022/02/18 12:16:26;;;;;;;1.08;0.80;;;;;;;;;;5034698;28;20178;-90
2022/02/18 12:19:07;;;;;;;3.53;0.98;;;;;;;;;;5032667;28;20186;-89
2022/02/18 12:21:34;;;;;;;2.97;1.77;;;;;;;;;;5011057;28;20200;-88
2022/02/18 12:24:19;;;;;;;1.55;0.95;;;;;;;;;;5023180;28;20191;-88
2022/02/18 12:26:45;;;;;;;1.67;0.70;;;;;;;;;;5051908;28;20194;-86
2022/02/18 12:29:17;;;;;;;2.55;0.85;;;;;;;;;;5020112;28;20244;-86
2022/02/18 12:31:53;;;;;;;2.85;0.93;;;;;;;;;;5025119;28;20193;-88
2022/02/18 12:34:29;;;;;;;5.80;0.98;;;;;;;;;;5035505;28;20217;-88
2022/02/18 12:36:55;;;;;;;4.15;1.23;;;;;;;;;;5045573;28;20217;-85
2022/02/18 12:39:39;;;;;;;2.88;0.90;;;;;;;;;;5017317;28;20265;-87
2022/02/18 12:42:10;;;;;;;2.00;1.20;;;;;;;;;;5043413;28;20194;-86
2022/02/18 12:44:44;;;;;;;3.78;1.10;;;;;;;;;;5053156;28;20182;-84
2022/02/18 12:47:09;;;;;;;1.20;0.95;;;;;;;;;;5033954;28;20178;-88
2022/02/18 12:49:40;;;;;;;3.25;1.48;;;;;;;;;;5023372;28;20218;-89
2022/02/18 12:52:06;;;;;;;4.40;1.27;;;;;;;;;;5021528;28;20703;-87
2022/02/18 12:54:51;;;;;;;1.88;0.90;;;;;;;;;;5055815;28;20183;-82
2022/02/18 12:57:22;;;;;;;2.58;1.10;;;;;;;;;;5053218;28;20198;-88
2022/02/18 12:59:49;;;;;;;2.55;0.80;;;;;;;;;;5023022;28;20175;-87
2022/02/18 13:02:34;;;;;;;4.45;1.83;;;;;;;;;;5043547;28;20210;-85
2022/02/18 13:05:04;;;;;;;5.72;1.23;;;;;;;;;;5008399;28;20230;-87
2022/02/18 13:07:33;;;;;;;7.65;1.58;;;;;;;;;;5028228;28;20250;-85
2022/02/18 13:09:59;;;;;;;3.42;1.10;;;;;;;;;;5036991;28;20237;-86
2022/02/18 13:12:25;;;;;;;8.93;2.30;;;;;;;;;;5009871;28;20198;-86
2022/02/18 13:15:02;;;;;;;4.82;1.35;;;;;;;;;;5022241;28;20703;-89
2022/02/18 13:17:29;;;;;;;5.28;1.77;;;;;;;;;;5023784;28;20185;-85
2022/02/18 13:19:55;;;;;;;4.85;1.92;;;;;;;;;;5027707;28;20183;-84
2022/02/18 13:22:21;;;;;;;10.77;2.45;;;;;;;;;;5031923;28;20178;-87
2022/02/18 13:24:47;;;;;;;7.53;2.92;;;;;;;;;;5039724;28;20194;-88
2022/02/18 13:27:14;;;;;;;7.53;1.70;;;;;;;;;;5038226;28;20194;-86
2022/02/18 13:29:43;;;;;;;8.13;2.20;;;;;;;;;;5023045;28;20468;-84
2022/02/18 13:32:19;;;;;;;4.63;1.38;;;;;;;;;;5036663;28;20202;-84
2022/02/18 13:34:51;;;;;;;5.95;1.63;;;;;;;;;;5039600;28;20225;-84
2022/02/18 13:37:17;;;;;;;7.13;2.58;;;;;;;;;;5018807;28;20183;-85
2022/02/18 13:39:47;;;;;;;9.85;2.70;;;;;;;;;;5031879;28;20226;-83
2022/02/18 13:42:13;;;;;;;4.72;2.05;;;;;;;;;;5029425;28;20195;-82
2022/02/18 13:44:58;;;;;;;9.90;2.78;;;;;;;;;;5009050;28;20641;-80
2022/02/18 13:47:24;;;;;;;6.53;2.00;;;;;;;;;;5010923;28;20187;-84
2022/02/18 13:49:50;;;;;;;5.50;1.80;;;;;;;;;;5030671;28;20210;-85
2022/02/18 13:52:16;;;;;;;4.70;1.52;;;;;;;;;;5030347;28;20213;-84
2022/02/18 13:54:42;;;;;;;6.05;1.75;;;;;;;;;;5043279;28;20197;-84
2022/02/18 13:57:10;;;;;;;6.68;2.47;;;;;;;;;;5030755;28;20260;-82
2022/02/18 13:59:36;;;;;;;8.38;2.45;;;;;;;;;;5029314;28;20186;-81
2022/02/18 14:02:06;;;;;;;6.47;2.00;;;;;;;;;;5028132;28;20202;-86
2022/02/18 14:04:34;;;;;;;7.85;2.30;;;;;;;;;;5022085;28;20258;-81
2022/02/18 14:07:06;;;;;;;7.15;1.63;;;;;;;;;;5007022;28;20183;-82
2022/02/18 14:09:38;;;;;;;6.25;2.75;;;;;;;;;;5025475;28;20209;-82
2022/02/18 14:12:05;;;;;;;6.70;2.05;;;;;;;;;;5028192;28;20328;-84
2022/02/18 14:14:31;;;;;;;8.60;2.60;;;;;;;;;;5025938;28;20193;-83
2022/02/18 14:16:58;;;;;;;7.55;2.08;;;;;;;;;;5013712;28;20187;-83
2022/02/18 14:19:44;;;;;;;9.23;2.65;;;;;;;;;;5030814;28;20671;-82
2022/02/18 14:22:10;;;;;;;6.63;2.25;;;;;;;;;;5014178;28;20179;-82
2022/02/18 14:24:37;;;;;;;6.85;2.88;;;;;;;;;;5007665;28;20198;-79
2022/02/18 14:27:06;;;;;;;8.45;2.75;;;;;;;;;;5038244;28;20200;-81
2022/02/18 14:29:32;;;;;;;5.55;2.00;;;;;;;;;;5014641;28;20198;-81
2022/02/18 14:31:59;;;;;;;7.10;2.20;;;;;;;;;;5020444;28;20274;-83
2022/02/18 14:34:26;;;;;;;8.55;2.97;;;;;;;;;;5029727;28;20187;-84
2022/02/18 14:37:02;;;;;;;10.07;2.80;;;;;;;;;;5020426;28;20206;-81
2022/02/18 14:39:38;;;;;;;9.07;2.10;;;;;;;;;;5012754;28;20240;-84
2022/02/18 14:42:06;;;;;;;7.93;2.58;;;;;;;;;;5009808;28;20225;-80